sensor_id;sensor_type;location;lat;lon;timestamp;P1;durP1;ratioP1;P2;durP2;ratioP2
29776;SDS011;16677;52.224;7.484;2023-05-08T06:42:59;8.65;;;7.90;;
29776;SDS011;16677;52.224;7.484;2023-05-08T06:45:26;9.02;;;8.15;;
29776;SDS011;16677;52.224;7.484;2023-05-08T06:47:53;9.30;;;8.40;;
29776;SDS011;16677;52.224;7.484;2023-05-08T06:50:21;8.65;;;7.78;;
29776;SDS011;16677;52.224;7.484;2023-05-08T06:52:48;8.85;;;8.05;;
29776;SDS011;16677;52.224;7.484;2023-05-08T06:55:15;8.82;;;8.02;;
29776;SDS011;16677;52.224;7.484;2023-05-08T06:57:42;9.73;;;8.70;;
29776;SDS011;16677;52.224;7.484;2023-05-08T07:00:09;8.50;;;7.72;;
29776;SDS011;16677;52.224;7.484;2023-05-08T07:02:37;8.32;;;7.68;;
29776;SDS011;16677;52.224;7.484;2023-05-08T07:05:04;8.63;;;7.93;;
29776;SDS011;16677;52.224;7.484;2023-05-08T07:07:32;8.55;;;7.78;;
29776;SDS011;16677;52.224;7.484;2023-05-08T07:09:59;29.23;;;11.00;;
29776;SDS011;16677;52.224;7.484;2023-05-08T07:12:26;15.40;;;9.53;;
29776;SDS011;16677;52.224;7.484;2023-05-08T07:14:53;9.80;;;8.63;;
29776;SDS011;16677;52.224;7.484;2023-05-08T07:17:23;9.33;;;8.37;;
29776;SDS011;16677;52.224;7.484;2023-05-08T07:29:39;10.73;;;9.77;;
29776;SDS011;16677;52.224;7.484;2023-05-08T07:32:07;10.93;;;9.23;;
29776;SDS011;16677;52.224;7.484;2023-05-08T07:34:35;9.97;;;9.07;;
29776;SDS011;16677;52.224;7.484;2023-05-08T07:37:02;12.97;;;9.70;;
29776;SDS011;16677;52.224;7.484;2023-05-08T07:39:29;25.90;;;11.77;;
29776;SDS011;16677;52.224;7.484;2023-05-08T07:41:57;45.90;;;12.93;;
29776;SDS011;16677;52.224;7.484;2023-05-08T07:44:24;49.60;;;12.63;;
29776;SDS011;16677;52.224;7.484;2023-05-08T07:46:51;11.90;;;9.63;;
29776;SDS011;16677;52.224;7.484;2023-05-08T07:49:18;9.93;;;8.93;;
29776;SDS011;16677;52.224;7.484;2023-05-08T07:51:45;20.60;;;10.83;;
29776;SDS011;16677;52.224;7.484;2023-05-08T07:54:12;10.70;;;9.70;;
29776;SDS011;16677;52.224;7.484;2023-05-08T07:56:39;11.63;;;10.00;;
29776;SDS011;16677;52.224;7.484;2023-05-08T08:08:54;10.83;;;9.67;;
29776;SDS011;16677;52.224;7.484;2023-05-08T08:11:21;11.45;;;10.55;;
29776;SDS011;16677;52.224;7.484;2023-05-08T08:13:48;10.97;;;9.97;;
29776;SDS011;16677;52.224;7.484;2023-05-08T08:16:15;10.73;;;9.83;;
29776;SDS011;16677;52.224;7.484;2023-05-08T08:18:43;12.90;;;9.77;;
29776;SDS011;16677;52.224;7.484;2023-05-08T08:21:10;11.60;;;10.50;;
29776;SDS011;16677;52.224;7.484;2023-05-08T09:06:13;11.23;;;10.17;;
29776;SDS011;16677;52.224;7.484;2023-05-08T09:08:40;11.65;;;10.55;;
29776;SDS011;16677;52.224;7.484;2023-05-08T09:13:34;10.93;;;9.93;;
29776;SDS011;16677;52.224;7.484;2023-05-08T09:16:02;11.48;;;10.57;;
29776;SDS011;16677;52.224;7.484;2023-05-08T09:18:29;12.27;;;11.27;;
29776;SDS011;16677;52.224;7.484;2023-05-08T09:20:57;11.82;;;10.90;;
29776;SDS011;16677;52.224;7.484;2023-05-08T09:23:26;12.40;;;11.10;;
29776;SDS011;16677;52.224;7.484;2023-05-08T09:25:53;11.67;;;10.63;;
29776;SDS011;16677;52.224;7.484;2023-05-08T09:28:24;11.47;;;10.27;;
29776;SDS011;16677;52.224;7.484;2023-05-08T09:33:26;12.32;;;11.13;;
29776;SDS011;16677;52.224;7.484;2023-05-08T09:35:55;12.23;;;11.07;;
29776;SDS011;16677;52.224;7.484;2023-05-08T09:46:25;14.55;;;13.15;;
29776;SDS011;16677;52.224;7.484;2023-05-08T09:48:53;16.93;;;13.60;;
29776;SDS011;16677;52.224;7.484;2023-05-08T09:51:23;14.48;;;13.02;;
29776;SDS011;16677;52.224;7.484;2023-05-08T09:56:33;15.43;;;13.80;;
29776;SDS011;16677;52.224;7.484;2023-05-08T09:59:03;15.75;;;13.20;;
29776;SDS011;16677;52.224;7.484;2023-05-08T10:01:48;16.05;;;14.65;;
29776;SDS011;16677;52.224;7.484;2023-05-08T10:04:16;14.57;;;12.95;;
29776;SDS011;16677;52.224;7.484;2023-05-08T10:06:54;14.52;;;13.23;;
29776;SDS011;16677;52.224;7.484;2023-05-08T10:09:23;14.35;;;12.95;;
29776;SDS011;16677;52.224;7.484;2023-05-08T10:11:56;13.88;;;12.60;;
29776;SDS011;16677;52.224;7.484;2023-05-08T10:14:23;16.42;;;14.88;;
29776;SDS011;16677;52.224;7.484;2023-05-08T10:16:51;15.20;;;13.70;;
29776;SDS011;16677;52.224;7.484;2023-05-08T10:19:20;15.07;;;13.68;;
29776;SDS011;16677;52.224;7.484;2023-05-08T10:21:53;15.85;;;14.30;;
29776;SDS011;16677;52.224;7.484;2023-05-08T10:24:26;15.57;;;13.50;;
29776;SDS011;16677;52.224;7.484;2023-05-08T10:27:12;16.05;;;14.45;;
29776;SDS011;16677;52.224;7.484;2023-05-08T10:29:52;15.07;;;13.50;;
29776;SDS011;16677;52.224;7.484;2023-05-08T10:32:22;14.52;;;13.20;;
29776;SDS011;16677;52.224;7.484;2023-05-08T10:34:55;14.88;;;13.57;;
29776;SDS011;16677;52.224;7.484;2023-05-08T10:37:26;14.15;;;12.85;;
29776;SDS011;16677;52.224;7.484;2023-05-08T10:39:58;12.73;;;11.73;;
29776;SDS011;16677;52.224;7.484;2023-05-08T10:42:26;13.88;;;12.60;;
29776;SDS011;16677;52.224;7.484;2023-05-08T10:44:54;13.23;;;12.10;;
29776;SDS011;16677;52.224;7.484;2023-05-08T10:47:23;13.05;;;11.95;;
29776;SDS011;16677;52.224;7.484;2023-05-08T10:50:32;12.77;;;11.67;;
29776;SDS011;16677;52.224;7.484;2023-05-08T10:56:26;13.68;;;12.27;;
29776;SDS011;16677;52.224;7.484;2023-05-08T10:58:54;13.68;;;12.38;;
29776;SDS011;16677;52.224;7.484;2023-05-08T11:01:25;13.05;;;12.05;;
29776;SDS011;16677;52.224;7.484;2023-05-08T11:03:53;12.95;;;11.82;;
29776;SDS011;16677;52.224;7.484;2023-05-08T11:06:44;13.80;;;12.50;;
29776;SDS011;16677;52.224;7.484;2023-05-08T11:09:28;13.15;;;12.02;;
29776;SDS011;16677;52.224;7.484;2023-05-08T11:12:20;13.68;;;12.38;;
29776;SDS011;16677;52.224;7.484;2023-05-08T11:15:02;13.75;;;12.57;;
29776;SDS011;16677;52.224;7.484;2023-05-08T11:17:32;14.80;;;13.30;;
29776;SDS011;16677;52.224;7.484;2023-05-08T11:20:03;12.90;;;11.68;;
29776;SDS011;16677;52.224;7.484;2023-05-08T11:22:32;12.18;;;10.95;;
29776;SDS011;16677;52.224;7.484;2023-05-08T11:25:09;11.77;;;10.68;;
29776;SDS011;16677;52.224;7.484;2023-05-08T11:27:38;11.90;;;10.77;;
29776;SDS011;16677;52.224;7.484;2023-05-08T11:30:33;11.35;;;10.45;;
29776;SDS011;16677;52.224;7.484;2023-05-08T11:35:49;11.43;;;10.43;;
29776;SDS011;16677;52.224;7.484;2023-05-08T12:05:50;10.68;;;9.77;;
29776;SDS011;16677;52.224;7.484;2023-05-08T12:08:23;10.90;;;9.80;;
29776;SDS011;16677;52.224;7.484;2023-05-08T12:10:56;11.05;;;9.95;;
29776;SDS011;16677;52.224;7.484;2023-05-08T12:13:24;10.77;;;9.77;;
29776;SDS011;16677;52.224;7.484;2023-05-08T12:15:58;10.45;;;9.55;;
29776;SDS011;16677;52.224;7.484;2023-05-08T12:18:26;9.20;;;8.35;;
29776;SDS011;16677;52.224;7.484;2023-05-08T12:20:56;8.77;;;7.97;;
29776;SDS011;16677;52.224;7.484;2023-05-08T12:23:25;8.00;;;7.35;;
29776;SDS011;16677;52.224;7.484;2023-05-08T12:25:59;8.50;;;7.80;;
29776;SDS011;16677;52.224;7.484;2023-05-08T12:28:27;9.52;;;8.63;;
29776;SDS011;16677;52.224;7.484;2023-05-08T12:30:57;9.45;;;8.43;;
29776;SDS011;16677;52.224;7.484;2023-05-08T12:33:25;7.28;;;6.65;;
29776;SDS011;16677;52.224;7.484;2023-05-08T12:35:54;7.97;;;7.38;;
29776;SDS011;16677;52.224;7.484;2023-05-08T12:38:25;7.97;;;7.38;;
29776;SDS011;16677;52.224;7.484;2023-05-08T12:40:53;7.07;;;6.47;;
29776;SDS011;16677;52.224;7.484;2023-05-08T12:43:30;7.65;;;6.55;;
29776;SDS011;16677;52.224;7.484;2023-05-08T12:46:01;7.45;;;6.75;;
29776;SDS011;16677;52.224;7.484;2023-05-08T12:48:30;8.98;;;8.18;;
29776;SDS011;16677;52.224;7.484;2023-05-08T12:51:01;7.18;;;6.57;;
29776;SDS011;16677;52.224;7.484;2023-05-08T12:53:31;6.63;;;6.03;;
29776;SDS011;16677;52.224;7.484;2023-05-08T12:56:02;6.35;;;5.75;;
29776;SDS011;16677;52.224;7.484;2023-05-08T12:58:30;7.93;;;7.13;;
29776;SDS011;16677;52.224;7.484;2023-05-08T13:01:09;7.30;;;6.70;;
29776;SDS011;16677;52.224;7.484;2023-05-08T13:03:39;7.07;;;6.30;;
29776;SDS011;16677;52.224;7.484;2023-05-08T13:06:17;5.88;;;5.38;;
29776;SDS011;16677;52.224;7.484;2023-05-08T13:08:51;7.30;;;6.70;;
29776;SDS011;16677;52.224;7.484;2023-05-08T13:11:27;7.68;;;6.45;;
29776;SDS011;16677;52.224;7.484;2023-05-08T13:13:59;7.20;;;6.55;;
29776;SDS011;16677;52.224;7.484;2023-05-08T13:16:29;9.18;;;8.23;;
29776;SDS011;16677;52.224;7.484;2023-05-08T13:18:56;9.50;;;7.63;;
29776;SDS011;16677;52.224;7.484;2023-05-08T13:21:23;7.32;;;6.72;;
29776;SDS011;16677;52.224;7.484;2023-05-08T13:23:53;7.18;;;6.47;;
29776;SDS011;16677;52.224;7.484;2023-05-08T13:26:20;7.82;;;7.13;;
29776;SDS011;16677;52.224;7.484;2023-05-08T13:28:47;8.15;;;7.35;;
29776;SDS011;16677;52.224;7.484;2023-05-08T13:31:14;7.15;;;6.55;;
29776;SDS011;16677;52.224;7.484;2023-05-08T13:33:41;8.52;;;7.82;;
29776;SDS011;16677;52.224;7.484;2023-05-08T13:36:08;8.48;;;7.88;;
29776;SDS011;16677;52.224;7.484;2023-05-08T13:38:35;8.45;;;7.75;;
29776;SDS011;16677;52.224;7.484;2023-05-08T13:41:02;8.20;;;7.50;;
29776;SDS011;16677;52.224;7.484;2023-05-08T13:43:29;8.20;;;7.60;;
29776;SDS011;16677;52.224;7.484;2023-05-08T13:45:56;9.75;;;8.95;;
29776;SDS011;16677;52.224;7.484;2023-05-08T13:48:23;10.50;;;9.70;;
29776;SDS011;16677;52.224;7.484;2023-05-08T13:50:50;10.00;;;9.20;;
29776;SDS011;16677;52.224;7.484;2023-05-08T13:53:17;10.05;;;9.35;;
29776;SDS011;16677;52.224;7.484;2023-05-08T13:55:44;9.55;;;8.80;;
29776;SDS011;16677;52.224;7.484;2023-05-08T13:58:11;8.60;;;7.90;;
29776;SDS011;16677;52.224;7.484;2023-05-08T14:00:39;7.72;;;7.03;;
29776;SDS011;16677;52.224;7.484;2023-05-08T14:03:06;7.65;;;7.05;;
29776;SDS011;16677;52.224;7.484;2023-05-08T14:05:33;8.37;;;7.67;;
29776;SDS011;16677;52.224;7.484;2023-05-08T14:08:00;7.10;;;6.50;;
29776;SDS011;16677;52.224;7.484;2023-05-08T14:10:28;6.93;;;6.27;;
29776;SDS011;16677;52.224;7.484;2023-05-08T14:12:55;7.20;;;6.50;;
29776;SDS011;16677;52.224;7.484;2023-05-08T14:15:22;7.40;;;6.75;;
29776;SDS011;16677;52.224;7.484;2023-05-08T14:18:01;8.37;;;7.57;;
29776;SDS011;16677;52.224;7.484;2023-05-08T14:20:28;8.00;;;7.22;;
29776;SDS011;16677;52.224;7.484;2023-05-08T14:22:55;6.90;;;6.20;;
29776;SDS011;16677;52.224;7.484;2023-05-08T14:25:25;7.05;;;5.97;;
29776;SDS011;16677;52.224;7.484;2023-05-08T14:27:52;8.15;;;7.45;;
29776;SDS011;16677;52.224;7.484;2023-05-08T14:30:19;6.90;;;6.40;;
29776;SDS011;16677;52.224;7.484;2023-05-08T14:32:46;7.85;;;7.05;;
29776;SDS011;16677;52.224;7.484;2023-05-08T14:35:14;8.45;;;6.47;;
29776;SDS011;16677;52.224;7.484;2023-05-08T14:37:41;7.30;;;6.38;;
29776;SDS011;16677;52.224;7.484;2023-05-08T14:40:08;6.82;;;5.88;;
29776;SDS011;16677;52.224;7.484;2023-05-08T14:42:35;5.72;;;5.32;;
29776;SDS011;16677;52.224;7.484;2023-05-08T14:45:03;5.15;;;4.65;;
29776;SDS011;16677;52.224;7.484;2023-05-08T14:47:31;6.18;;;5.68;;
29776;SDS011;16677;52.224;7.484;2023-05-08T14:49:59;5.97;;;5.38;;
29776;SDS011;16677;52.224;7.484;2023-05-08T14:52:26;5.10;;;4.70;;
29776;SDS011;16677;52.224;7.484;2023-05-08T14:54:54;3.70;;;3.40;;
29776;SDS011;16677;52.224;7.484;2023-05-08T14:57:21;3.30;;;3.00;;
29776;SDS011;16677;52.224;7.484;2023-05-08T14:59:48;6.07;;;5.47;;
29776;SDS011;16677;52.224;7.484;2023-05-08T15:02:20;7.38;;;6.78;;
29776;SDS011;16677;52.224;7.484;2023-05-08T15:04:49;6.07;;;5.47;;
29776;SDS011;16677;52.224;7.484;2023-05-08T15:07:16;7.20;;;6.60;;
29776;SDS011;16677;52.224;7.484;2023-05-08T15:12:10;9.02;;;8.23;;
29776;SDS011;16677;52.224;7.484;2023-05-08T15:14:37;10.00;;;9.20;;
29776;SDS011;16677;52.224;7.484;2023-05-08T15:17:04;8.48;;;7.50;;
29776;SDS011;16677;52.224;7.484;2023-05-08T15:19:31;8.60;;;7.25;;
29776;SDS011;16677;52.224;7.484;2023-05-08T15:21:58;6.85;;;6.25;;
29776;SDS011;16677;52.224;7.484;2023-05-08T15:24:25;7.53;;;6.82;;
29776;SDS011;16677;52.224;7.484;2023-05-08T15:26:52;6.32;;;5.85;;
29776;SDS011;16677;52.224;7.484;2023-05-08T15:29:19;6.25;;;5.65;;
29776;SDS011;16677;52.224;7.484;2023-05-08T15:31:46;8.43;;;7.72;;
29776;SDS011;16677;52.224;7.484;2023-05-08T15:34:13;8.50;;;7.57;;
29776;SDS011;16677;52.224;7.484;2023-05-08T15:36:40;9.27;;;8.48;;
29776;SDS011;16677;52.224;7.484;2023-05-08T15:39:07;8.20;;;7.50;;
29776;SDS011;16677;52.224;7.484;2023-05-08T15:41:34;7.80;;;7.10;;
29776;SDS011;16677;52.224;7.484;2023-05-08T15:44:02;7.97;;;7.30;;
29776;SDS011;16677;52.224;7.484;2023-05-08T15:46:30;7.90;;;7.18;;
29776;SDS011;16677;52.224;7.484;2023-05-08T15:48:57;6.43;;;5.80;;
29776;SDS011;16677;52.224;7.484;2023-05-08T15:51:27;4.80;;;4.40;;
29776;SDS011;16677;52.224;7.484;2023-05-08T15:56:22;5.28;;;4.78;;
29776;SDS011;16677;52.224;7.484;2023-05-08T15:58:50;4.18;;;3.78;;
29776;SDS011;16677;52.224;7.484;2023-05-08T16:01:18;4.65;;;3.30;;
29776;SDS011;16677;52.224;7.484;2023-05-08T16:03:46;3.78;;;3.10;;
29776;SDS011;16677;52.224;7.484;2023-05-08T16:06:13;3.78;;;2.80;;
29776;SDS011;16677;52.224;7.484;2023-05-08T16:08:40;3.95;;;2.63;;
29776;SDS011;16677;52.224;7.484;2023-05-08T16:11:07;9.05;;;8.25;;
29776;SDS011;16677;52.224;7.484;2023-05-08T16:13:34;4.18;;;3.70;;
29776;SDS011;16677;52.224;7.484;2023-05-08T16:16:01;4.28;;;3.70;;
29776;SDS011;16677;52.224;7.484;2023-05-08T16:18:30;4.75;;;4.35;;
29776;SDS011;16677;52.224;7.484;2023-05-08T16:20:57;5.20;;;4.75;;
29776;SDS011;16677;52.224;7.484;2023-05-08T16:23:24;6.28;;;5.70;;
29776;SDS011;16677;52.224;7.484;2023-05-08T16:25:52;6.15;;;5.65;;
29776;SDS011;16677;52.224;7.484;2023-05-08T16:28:19;6.78;;;6.00;;
29776;SDS011;16677;52.224;7.484;2023-05-08T16:30:46;5.97;;;5.57;;
29776;SDS011;16677;52.224;7.484;2023-05-08T16:33:13;5.95;;;5.43;;
29776;SDS011;16677;52.224;7.484;2023-05-08T16:35:40;6.93;;;6.32;;
29776;SDS011;16677;52.224;7.484;2023-05-08T16:38:07;7.70;;;5.97;;
29776;SDS011;16677;52.224;7.484;2023-05-08T16:40:34;7.53;;;6.82;;
29776;SDS011;16677;52.224;7.484;2023-05-08T16:43:02;7.35;;;6.70;;
29776;SDS011;16677;52.224;7.484;2023-05-08T16:45:29;7.68;;;7.07;;
29776;SDS011;16677;52.224;7.484;2023-05-08T16:47:56;8.20;;;7.47;;
29776;SDS011;16677;52.224;7.484;2023-05-08T16:50:23;7.80;;;7.20;;
29776;SDS011;16677;52.224;7.484;2023-05-08T16:52:50;8.38;;;7.63;;
29776;SDS011;16677;52.224;7.484;2023-05-08T16:55:17;8.35;;;7.55;;
29776;SDS011;16677;52.224;7.484;2023-05-08T16:57:44;8.15;;;7.45;;
29776;SDS011;16677;52.224;7.484;2023-05-08T17:29:41;7.18;;;6.50;;
29776;SDS011;16677;52.224;7.484;2023-05-08T17:32:08;8.98;;;6.60;;
29776;SDS011;16677;52.224;7.484;2023-05-08T17:34:35;6.60;;;6.00;;
29776;SDS011;16677;52.224;7.484;2023-05-08T17:37:02;7.20;;;6.60;;
29776;SDS011;16677;52.224;7.484;2023-05-08T17:39:29;7.72;;;7.05;;
29776;SDS011;16677;52.224;7.484;2023-05-08T17:41:56;8.25;;;7.50;;
29776;SDS011;16677;52.224;7.484;2023-05-08T17:44:23;7.75;;;7.05;;
29776;SDS011;16677;52.224;7.484;2023-05-08T17:46:50;8.80;;;8.00;;
29776;SDS011;16677;52.224;7.484;2023-05-08T17:49:18;9.07;;;8.17;;
29776;SDS011;16677;52.224;7.484;2023-05-08T17:51:45;9.40;;;8.60;;
29776;SDS011;16677;52.224;7.484;2023-05-08T17:54:12;9.40;;;8.50;;
29776;SDS011;16677;52.224;7.484;2023-05-08T17:56:39;9.63;;;8.70;;
29776;SDS011;16677;52.224;7.484;2023-05-08T17:59:06;8.40;;;7.63;;
29776;SDS011;16677;52.224;7.484;2023-05-08T18:01:34;6.93;;;6.32;;
29776;SDS011;16677;52.224;7.484;2023-05-08T18:04:02;6.47;;;5.88;;
29776;SDS011;16677;52.224;7.484;2023-05-08T18:06:29;5.70;;;5.20;;
29776;SDS011;16677;52.224;7.484;2023-05-08T18:08:57;5.50;;;5.00;;
29776;SDS011;16677;52.224;7.484;2023-05-08T18:11:24;5.40;;;4.30;;
29776;SDS011;16677;52.224;7.484;2023-05-08T18:13:52;4.97;;;4.35;;
29776;SDS011;16677;52.224;7.484;2023-05-08T18:18:47;4.68;;;4.30;;
29776;SDS011;16677;52.224;7.484;2023-05-08T18:21:15;4.88;;;4.38;;
29776;SDS011;16677;52.224;7.484;2023-05-08T18:23:42;4.75;;;4.35;;
29776;SDS011;16677;52.224;7.484;2023-05-08T18:26:12;5.15;;;4.75;;
29776;SDS011;16677;52.224;7.484;2023-05-08T18:28:40;5.45;;;4.88;;
29776;SDS011;16677;52.224;7.484;2023-05-08T18:31:08;5.05;;;4.63;;
29776;SDS011;16677;52.224;7.484;2023-05-08T18:33:36;4.82;;;3.95;;
29776;SDS011;16677;52.224;7.484;2023-05-08T18:36:04;4.45;;;3.92;;
29776;SDS011;16677;52.224;7.484;2023-05-08T18:38:32;11.48;;;10.48;;
29776;SDS011;16677;52.224;7.484;2023-05-08T18:41:03;6.13;;;5.63;;
29776;SDS011;16677;52.224;7.484;2023-05-08T18:43:31;3.30;;;3.03;;
29776;SDS011;16677;52.224;7.484;2023-05-08T18:45:58;4.38;;;2.97;;
29776;SDS011;16677;52.224;7.484;2023-05-08T18:48:32;3.20;;;2.90;;
29776;SDS011;16677;52.224;7.484;2023-05-08T18:51:00;3.20;;;2.85;;
29776;SDS011;16677;52.224;7.484;2023-05-08T18:53:27;2.88;;;2.67;;
29776;SDS011;16677;52.224;7.484;2023-05-08T18:55:55;3.45;;;3.15;;
29776;SDS011;16677;52.224;7.484;2023-05-08T18:58:22;3.17;;;2.88;;
29776;SDS011;16677;52.224;7.484;2023-05-08T19:00:49;3.08;;;2.83;;
29776;SDS011;16677;52.224;7.484;2023-05-08T19:03:24;3.40;;;3.00;;
29776;SDS011;16677;52.224;7.484;2023-05-08T19:08:20;3.40;;;2.90;;
29776;SDS011;16677;52.224;7.484;2023-05-08T19:10:47;3.28;;;2.97;;
29776;SDS011;16677;52.224;7.484;2023-05-08T19:15:41;3.42;;;2.92;;
29776;SDS011;16677;52.224;7.484;2023-05-08T19:18:08;2.65;;;2.45;;
29776;SDS011;16677;52.224;7.484;2023-05-08T19:20:35;3.23;;;2.80;;
29776;SDS011;16677;52.224;7.484;2023-05-08T19:23:02;2.70;;;2.50;;
29776;SDS011;16677;52.224;7.484;2023-05-08T19:25:29;3.25;;;2.88;;
29776;SDS011;16677;52.224;7.484;2023-05-08T19:27:57;3.05;;;2.75;;
29776;SDS011;16677;52.224;7.484;2023-05-08T19:30:24;2.92;;;2.72;;
29776;SDS011;16677;52.224;7.484;2023-05-08T19:32:51;3.40;;;3.10;;
29776;SDS011;16677;52.224;7.484;2023-05-08T19:35:18;3.25;;;2.95;;
29776;SDS011;16677;52.224;7.484;2023-05-08T19:37:45;2.90;;;2.70;;
29776;SDS011;16677;52.224;7.484;2023-05-08T19:40:12;3.28;;;2.97;;
29776;SDS011;16677;52.224;7.484;2023-05-08T19:42:41;2.72;;;2.53;;
29776;SDS011;16677;52.224;7.484;2023-05-08T19:45:11;3.47;;;2.60;;
29776;SDS011;16677;52.224;7.484;2023-05-08T19:47:38;2.90;;;2.63;;
29776;SDS011;16677;52.224;7.484;2023-05-08T19:50:05;2.60;;;2.30;;
29776;SDS011;16677;52.224;7.484;2023-05-08T19:52:33;2.83;;;2.63;;
29776;SDS011;16677;52.224;7.484;2023-05-08T19:55:00;9.70;;;8.65;;
29776;SDS011;16677;52.224;7.484;2023-05-08T19:57:27;23.08;;;20.75;;
29776;SDS011;16677;52.224;7.484;2023-05-08T19:59:54;6.05;;;5.47;;
29776;SDS011;16677;52.224;7.484;2023-05-08T20:02:21;3.00;;;2.60;;
29776;SDS011;16677;52.224;7.484;2023-05-08T20:04:48;4.10;;;3.80;;
29776;SDS011;16677;52.224;7.484;2023-05-08T20:29:42;3.50;;;3.20;;
29776;SDS011;16677;52.224;7.484;2023-05-08T20:32:10;2.83;;;2.63;;
29776;SDS011;16677;52.224;7.484;2023-05-08T20:34:40;3.80;;;3.20;;
29776;SDS011;16677;52.224;7.484;2023-05-08T20:37:07;4.28;;;3.03;;
29776;SDS011;16677;52.224;7.484;2023-05-08T20:39:34;3.50;;;3.20;;
29776;SDS011;16677;52.224;7.484;2023-05-08T20:42:01;3.77;;;3.47;;
29776;SDS011;16677;52.224;7.484;2023-05-08T20:44:29;4.00;;;3.60;;
29776;SDS011;16677;52.224;7.484;2023-05-08T20:46:56;3.63;;;3.33;;
29776;SDS011;16677;52.224;7.484;2023-05-08T20:49:23;4.13;;;3.83;;
29776;SDS011;16677;52.224;7.484;2023-05-08T20:51:51;4.18;;;3.78;;
29776;SDS011;16677;52.224;7.484;2023-05-08T20:54:18;4.10;;;3.80;;
29776;SDS011;16677;52.224;7.484;2023-05-08T20:56:45;4.60;;;3.67;;
29776;SDS011;16677;52.224;7.484;2023-05-08T20:59:12;3.80;;;3.50;;
29776;SDS011;16677;52.224;7.484;2023-05-08T21:01:41;4.53;;;3.77;;
29776;SDS011;16677;52.224;7.484;2023-05-08T21:04:08;4.13;;;3.72;;
29776;SDS011;16677;52.224;7.484;2023-05-08T21:06:36;3.90;;;3.60;;
29776;SDS011;16677;52.224;7.484;2023-05-08T21:09:03;4.32;;;3.75;;
29776;SDS011;16677;52.224;7.484;2023-05-08T21:11:32;4.97;;;3.83;;
29776;SDS011;16677;52.224;7.484;2023-05-08T21:13:59;4.20;;;3.90;;
29776;SDS011;16677;52.224;7.484;2023-05-08T21:16:26;4.05;;;3.75;;
29776;SDS011;16677;52.224;7.484;2023-05-08T21:18:54;4.05;;;3.67;;
29776;SDS011;16677;52.224;7.484;2023-05-08T21:21:23;4.37;;;3.83;;
29776;SDS011;16677;52.224;7.484;2023-05-08T21:23:51;4.10;;;3.80;;
29776;SDS011;16677;52.224;7.484;2023-05-08T21:26:18;4.30;;;3.90;;
29776;SDS011;16677;52.224;7.484;2023-05-08T21:28:48;6.20;;;4.28;;
29776;SDS011;16677;52.224;7.484;2023-05-08T21:31:18;4.28;;;3.92;;
29776;SDS011;16677;52.224;7.484;2023-05-08T21:33:45;4.60;;;4.30;;
29776;SDS011;16677;52.224;7.484;2023-05-08T21:36:13;5.03;;;4.63;;
29776;SDS011;16677;52.224;7.484;2023-05-08T21:38:40;5.38;;;4.97;;
29776;SDS011;16677;52.224;7.484;2023-05-08T21:41:07;5.03;;;4.53;;
29776;SDS011;16677;52.224;7.484;2023-05-08T21:43:34;5.30;;;4.90;;
29776;SDS011;16677;52.224;7.484;2023-05-08T21:46:02;5.88;;;5.38;;
29776;SDS011;16677;52.224;7.484;2023-05-08T21:48:31;5.95;;;5.45;;
29776;SDS011;16677;52.224;7.484;2023-05-08T21:50:59;5.70;;;5.28;;
29776;SDS011;16677;52.224;7.484;2023-05-08T21:53:27;5.50;;;5.10;;
29776;SDS011;16677;52.224;7.484;2023-05-08T21:55:54;6.32;;;5.72;;
29776;SDS011;16677;52.224;7.484;2023-05-08T21:58:21;6.30;;;5.80;;
29776;SDS011;16677;52.224;7.484;2023-05-08T22:00:49;6.70;;;6.18;;
29776;SDS011;16677;52.224;7.484;2023-05-08T22:03:17;6.37;;;5.87;;
29776;SDS011;16677;52.224;7.484;2023-05-08T22:05:44;6.78;;;5.78;;
29776;SDS011;16677;52.224;7.484;2023-05-08T22:08:11;6.28;;;5.78;;
29776;SDS011;16677;52.224;7.484;2023-05-08T22:10:39;6.90;;;6.30;;
29776;SDS011;16677;52.224;7.484;2023-05-08T22:13:06;7.28;;;6.22;;
29776;SDS011;16677;52.224;7.484;2023-05-08T22:15:33;7.20;;;6.60;;
29776;SDS011;16677;52.224;7.484;2023-05-08T22:18:01;7.07;;;6.47;;
29776;SDS011;16677;52.224;7.484;2023-05-08T22:20:29;6.95;;;6.32;;
29776;SDS011;16677;52.224;7.484;2023-05-08T22:22:56;7.15;;;6.55;;
29776;SDS011;16677;52.224;7.484;2023-05-08T22:25:23;6.95;;;6.35;;
29776;SDS011;16677;52.224;7.484;2023-05-08T22:27:52;6.90;;;6.40;;
29776;SDS011;16677;52.224;7.484;2023-05-08T22:30:19;7.38;;;6.78;;
29776;SDS011;16677;52.224;7.484;2023-05-08T22:32:53;7.50;;;6.80;;
29776;SDS011;16677;52.224;7.484;2023-05-08T22:35:23;7.85;;;7.15;;
29776;SDS011;16677;52.224;7.484;2023-05-08T22:37:52;8.10;;;7.40;;
29776;SDS011;16677;52.224;7.484;2023-05-08T22:40:20;8.10;;;7.40;;
29776;SDS011;16677;52.224;7.484;2023-05-08T22:42:51;9.02;;;8.32;;
29776;SDS011;16677;52.224;7.484;2023-05-08T22:45:21;9.95;;;9.05;;
29776;SDS011;16677;52.224;7.484;2023-05-08T22:47:48;9.65;;;8.75;;
29776;SDS011;16677;52.224;7.484;2023-05-08T22:50:16;8.73;;;8.03;;
29776;SDS011;16677;52.224;7.484;2023-05-08T22:55:11;10.43;;;9.48;;
29776;SDS011;16677;52.224;7.484;2023-05-08T22:57:38;10.48;;;9.57;;
29776;SDS011;16677;52.224;7.484;2023-05-08T23:00:06;10.55;;;9.65;;
29776;SDS011;16677;52.224;7.484;2023-05-08T23:02:34;11.48;;;10.48;;
29776;SDS011;16677;52.224;7.484;2023-05-08T23:05:01;11.02;;;10.05;;
29776;SDS011;16677;52.224;7.484;2023-05-08T23:07:29;11.60;;;10.60;;
29776;SDS011;16677;52.224;7.484;2023-05-08T23:09:56;10.83;;;9.83;;
29776;SDS011;16677;52.224;7.484;2023-05-08T23:12:24;10.87;;;9.77;;
29776;SDS011;16677;52.224;7.484;2023-05-08T23:14:51;10.00;;;9.10;;
